createdAt,value
2018-12-08T00:00:34.980Z,289.03
2018-12-08T00:03:16.184Z,281.83
2018-12-08T00:05:56.308Z,281.33
2018-12-08T00:08:37.598Z,270.93
2018-12-08T00:11:18.342Z,269.17
2018-12-08T00:13:58.956Z,259.60
2018-12-08T00:16:39.376Z,269.73
2018-12-08T00:19:20.346Z,284.93
2018-12-08T00:22:01.382Z,286.70
2018-12-08T00:24:42.589Z,286.97
2018-12-08T00:27:23.900Z,286.97
2018-12-08T00:30:04.671Z,332.20
2018-12-08T00:32:45.211Z,301.30
2018-12-08T00:35:26.197Z,304.50
2018-12-08T00:38:06.915Z,353.00
2018-12-08T00:40:48.142Z,340.57
2018-12-08T00:43:28.910Z,355.70
2018-12-08T00:46:09.831Z,285.03
2018-12-08T00:48:51.237Z,312.03
2018-12-08T00:51:31.923Z,292.43
2018-12-08T00:54:12.390Z,296.40
2018-12-08T00:56:53.510Z,305.00
2018-12-08T00:59:33.946Z,310.67
2018-12-08T01:02:14.510Z,315.30
2018-12-08T01:04:55.263Z,302.93
2018-12-08T01:07:36.347Z,297.90
2018-12-08T01:10:17.113Z,298.50
2018-12-08T01:12:58.104Z,305.07
2018-12-08T01:15:38.352Z,311.73
2018-12-08T01:18:19.558Z,304.77
2018-12-08T01:21:00.749Z,324.20
2018-12-08T01:23:41.691Z,334.37
2018-12-08T01:26:22.587Z,339.00
2018-12-08T01:29:04.156Z,328.47
2018-12-08T01:31:45.665Z,312.13
2018-12-08T01:34:26.071Z,298.67
2018-12-08T01:37:06.975Z,308.20
2018-12-08T01:39:48.465Z,308.23
2018-12-08T01:42:29.431Z,308.60
2018-12-08T01:45:10.784Z,306.13
2018-12-08T01:47:52.083Z,303.67
2018-12-08T01:50:33.064Z,292.27
2018-12-08T01:53:13.992Z,313.20
2018-12-08T01:55:55.710Z,308.40
2018-12-08T01:58:36.636Z,317.37
2018-12-08T02:01:17.716Z,307.27
2018-12-08T02:03:58.440Z,316.30
2018-12-08T02:06:39.196Z,330.30
2018-12-08T02:09:20.025Z,329.50
2018-12-08T02:12:00.910Z,323.30
2018-12-08T02:14:41.992Z,317.40
2018-12-08T02:17:22.355Z,308.07
2018-12-08T02:20:02.745Z,326.37
2018-12-08T02:22:43.865Z,307.27
2018-12-08T02:25:24.583Z,307.00
2018-12-08T02:28:05.789Z,352.43
2018-12-08T02:30:46.512Z,338.13
2018-12-08T02:33:26.633Z,315.10
2018-12-08T02:36:07.342Z,300.83
2018-12-08T02:38:48.060Z,285.17
2018-12-08T02:41:29.520Z,287.50
2018-12-08T02:44:10.278Z,288.63
2018-12-08T02:46:51.026Z,286.03
2018-12-08T02:49:32.113Z,296.77
2018-12-08T02:52:13.206Z,290.37
2018-12-08T02:54:53.799Z,285.67
2018-12-08T02:57:34.537Z,277.73
2018-12-08T03:00:15.705Z,280.03
2018-12-08T03:02:56.266Z,276.27
2018-12-08T03:05:37.267Z,274.50
2018-12-08T03:08:18.269Z,274.93
2018-12-08T03:10:58.867Z,267.40
2018-12-08T03:13:39.873Z,257.90
2018-12-08T03:16:20.307Z,288.90
2018-12-08T03:19:01.492Z,270.57
2018-12-08T03:21:42.424Z,261.67
2018-12-08T03:24:23.398Z,248.37
2018-12-08T03:27:04.354Z,251.13
2018-12-08T03:29:45.625Z,242.33
2018-12-08T03:32:26.349Z,254.83
2018-12-08T03:35:07.232Z,239.37
2018-12-08T03:37:48.306Z,239.80
2018-12-08T03:40:28.982Z,243.83
2018-12-08T03:43:09.859Z,240.50
2018-12-08T03:45:50.542Z,238.10
2018-12-08T03:48:31.625Z,240.03
2018-12-08T03:51:12.347Z,240.40
2018-12-08T03:53:52.827Z,238.73
2018-12-08T03:56:33.495Z,238.23
2018-12-08T03:59:14.163Z,240.03
2018-12-08T04:01:54.703Z,235.47
2018-12-08T04:04:35.468Z,238.67
2018-12-08T04:07:16.560Z,237.97
2018-12-08T04:09:57.345Z,237.83
2018-12-08T04:12:38.074Z,237.20
2018-12-08T04:15:19.062Z,242.57
2018-12-08T04:17:59.881Z,233.20
2018-12-08T04:20:40.988Z,238.27
2018-12-08T04:23:21.704Z,238.67
2018-12-08T04:26:02.671Z,236.03
2018-12-08T04:28:42.965Z,227.40
2018-12-08T04:31:23.305Z,233.40
2018-12-08T04:34:04.186Z,229.17
2018-12-08T04:36:44.581Z,223.33
2018-12-08T04:39:25.472Z,223.00
2018-12-08T04:42:06.272Z,221.43
2018-12-08T04:44:46.814Z,212.73
2018-12-08T04:47:27.223Z,206.97
2018-12-08T04:50:07.935Z,205.47
2018-12-08T04:52:48.716Z,199.27
2018-12-08T04:55:29.311Z,196.63
2018-12-08T04:58:10.137Z,202.23
2018-12-08T05:00:50.923Z,198.77
2018-12-08T05:03:32.208Z,197.97
2018-12-08T05:06:12.992Z,204.13
2018-12-08T05:08:53.655Z,190.37
2018-12-08T05:11:34.500Z,189.17
2018-12-08T05:14:15.467Z,189.03
2018-12-08T05:16:56.359Z,189.87
2018-12-08T05:19:37.257Z,187.40
2018-12-08T05:22:17.958Z,194.80
2018-12-08T05:24:58.625Z,187.90
2018-12-08T05:27:39.235Z,191.07
2018-12-08T05:30:19.751Z,183.80
2018-12-08T05:33:00.830Z,175.83
2018-12-08T05:35:41.420Z,180.17
2018-12-08T05:38:22.147Z,180.53
2018-12-08T05:41:03.151Z,170.33
2018-12-08T05:43:44.032Z,179.00
2018-12-08T05:46:24.791Z,173.03
2018-12-08T05:49:05.755Z,175.77
2018-12-08T05:51:46.428Z,174.73
2018-12-08T05:54:27.060Z,177.00
2018-12-08T05:57:07.656Z,177.63
2018-12-08T05:59:48.222Z,184.33
2018-12-08T06:02:28.598Z,175.13
2018-12-08T06:05:09.463Z,172.77
2018-12-08T06:07:50.682Z,180.97
2018-12-08T06:10:30.955Z,184.93
2018-12-08T06:13:12.105Z,177.43
2018-12-08T06:15:52.107Z,180.10
2018-12-08T06:18:32.700Z,192.10
2018-12-08T06:21:13.572Z,200.13
2018-12-08T06:23:54.430Z,183.03
2018-12-08T06:26:35.129Z,178.97
2018-12-08T06:29:15.866Z,222.13
2018-12-08T06:31:56.838Z,203.63
2018-12-08T06:34:37.150Z,187.53
2018-12-08T06:37:17.677Z,186.00
2018-12-08T06:39:58.670Z,177.53
2018-12-08T06:42:39.831Z,171.27
2018-12-08T06:45:20.705Z,170.10
2018-12-08T06:48:01.355Z,166.27
2018-12-08T06:50:41.951Z,173.87
2018-12-08T06:53:23.564Z,176.83
2018-12-08T06:56:04.583Z,154.87
2018-12-08T06:58:45.269Z,145.50
2018-12-08T07:01:26.436Z,143.67
2018-12-08T07:04:07.095Z,140.10
2018-12-08T07:06:48.351Z,136.83
2018-12-08T07:09:29.055Z,137.97
2018-12-08T07:12:09.950Z,134.10
2018-12-08T07:14:50.585Z,131.13
2018-12-08T07:17:31.074Z,131.63
2018-12-08T07:20:11.710Z,125.23
2018-12-08T07:22:53.145Z,132.00
2018-12-08T07:25:34.414Z,130.93
2018-12-08T07:28:15.045Z,126.23
2018-12-08T07:30:56.118Z,129.40
2018-12-08T07:33:37.086Z,123.97
2018-12-08T07:36:17.632Z,127.90
2018-12-08T07:38:58.532Z,129.23
2018-12-08T07:41:39.498Z,124.83
2018-12-08T07:44:20.355Z,123.73
2018-12-08T07:47:01.557Z,124.17
2018-12-08T07:49:42.234Z,120.40
2018-12-08T07:52:23.085Z,118.50
2018-12-08T07:55:04.682Z,124.57
2018-12-08T07:57:45.958Z,125.50
2018-12-08T08:00:27.020Z,119.50
2018-12-08T08:03:07.372Z,121.23
2018-12-08T08:05:48.372Z,120.17
2018-12-08T08:08:29.540Z,120.47
2018-12-08T08:11:10.201Z,114.13
2018-12-08T08:13:51.723Z,112.10
2018-12-08T08:16:32.991Z,113.43
2018-12-08T08:19:13.956Z,113.93
2018-12-08T08:21:54.583Z,115.10
2018-12-08T08:24:35.864Z,113.07
2018-12-08T08:27:16.665Z,111.07
2018-12-08T08:29:57.852Z,111.23
2018-12-08T08:32:38.428Z,108.43
2018-12-08T08:35:19.472Z,104.43
2018-12-08T08:38:00.375Z,103.23
2018-12-08T08:40:41.334Z,102.67
2018-12-08T08:43:21.999Z,102.67
2018-12-08T08:46:02.967Z,104.67
2018-12-08T08:48:43.855Z,102.53
2018-12-08T08:51:24.272Z,101.43
2018-12-08T08:54:05.105Z,103.17
2018-12-08T08:56:46.151Z,100.70
2018-12-08T08:59:27.737Z,100.10
2018-12-08T09:02:08.343Z,99.47
2018-12-08T09:10:38.835Z,99.47
2018-12-08T09:13:19.387Z,101.37
2018-12-08T09:21:53.984Z,101.70
2018-12-08T09:24:35.002Z,101.30
2018-12-08T09:27:15.919Z,98.00
2018-12-08T09:29:56.893Z,97.10
2018-12-08T09:32:37.791Z,101.10
2018-12-08T09:35:18.895Z,104.07
2018-12-08T09:38:00.137Z,128.63
2018-12-08T09:40:41.428Z,107.63
2018-12-08T09:43:22.912Z,102.77
2018-12-08T09:46:03.778Z,98.53
2018-12-08T09:48:44.815Z,94.47
2018-12-08T09:51:25.195Z,96.13
2018-12-08T09:54:06.474Z,93.60
2018-12-08T09:56:48.031Z,95.97
2018-12-08T09:59:29.305Z,104.17
2018-12-08T10:02:10.577Z,97.27
2018-12-08T10:04:51.593Z,99.20
2018-12-08T10:07:32.936Z,97.50
2018-12-08T10:10:13.781Z,100.93
2018-12-08T10:12:54.637Z,99.50
2018-12-08T10:15:35.812Z,101.43
2018-12-08T10:18:16.991Z,106.90
2018-12-08T10:20:57.941Z,105.13
2018-12-08T10:23:38.938Z,107.17
2018-12-08T10:26:19.699Z,109.13
2018-12-08T10:29:00.983Z,112.93
2018-12-08T10:31:41.848Z,113.80
2018-12-08T10:34:22.478Z,112.00
2018-12-08T10:37:03.521Z,107.43
2018-12-08T10:39:44.722Z,106.67
2018-12-08T10:42:26.054Z,104.20
2018-12-08T10:45:06.955Z,99.73
2018-12-08T10:47:47.798Z,102.27
2018-12-08T10:50:28.874Z,103.57
2018-12-08T10:53:10.140Z,107.67
2018-12-08T10:55:51.371Z,104.40
2018-12-08T10:58:32.304Z,104.90
2018-12-08T11:01:13.695Z,102.00
2018-12-08T11:03:54.586Z,102.13
2018-12-08T11:06:35.631Z,101.77
2018-12-08T11:09:17.177Z,100.90
2018-12-08T11:11:58.431Z,103.13
2018-12-08T11:14:39.390Z,103.17
2018-12-08T11:17:20.493Z,119.10
2018-12-08T11:20:01.864Z,115.17
2018-12-08T11:22:43.034Z,119.90
2018-12-08T11:25:24.311Z,120.80
2018-12-08T11:28:05.884Z,159.53
2018-12-08T11:30:47.034Z,123.63
2018-12-08T11:33:28.361Z,119.30
2018-12-08T11:36:09.627Z,121.13
2018-12-08T11:38:50.788Z,119.40
2018-12-08T11:41:31.534Z,130.70
2018-12-08T11:44:12.183Z,122.43
2018-12-08T11:46:53.180Z,122.63
2018-12-08T11:49:34.499Z,121.97
2018-12-08T11:52:15.501Z,118.67
2018-12-08T11:54:56.741Z,123.07
2018-12-08T11:57:37.717Z,121.03
2018-12-08T12:00:18.898Z,119.30
2018-12-08T12:02:59.877Z,126.37
2018-12-08T12:05:40.842Z,137.50
2018-12-08T12:08:21.581Z,138.17
2018-12-08T12:11:02.077Z,130.90
2018-12-08T12:13:42.335Z,125.60
2018-12-08T12:16:23.100Z,120.90
2018-12-08T12:19:06.496Z,123.03
2018-12-08T12:21:49.952Z,123.63
2018-12-08T12:24:30.715Z,120.70
2018-12-08T12:27:11.051Z,130.87
2018-12-08T12:29:51.738Z,151.37
2018-12-08T12:32:32.192Z,161.37
2018-12-08T12:35:12.853Z,169.53
2018-12-08T12:37:53.829Z,180.90
2018-12-08T12:40:34.264Z,174.10
2018-12-08T12:43:14.981Z,216.60
2018-12-08T12:45:55.584Z,239.87
2018-12-08T12:48:36.303Z,300.37
2018-12-08T12:51:16.964Z,344.20
2018-12-08T12:53:57.560Z,293.93
2018-12-08T12:56:38.316Z,276.30
2018-12-08T12:59:18.875Z,276.37
2018-12-08T13:02:02.487Z,236.40
2018-12-08T13:04:43.073Z,235.97
2018-12-08T13:07:30.106Z,222.90
2018-12-08T13:10:13.236Z,210.00
2018-12-08T13:12:53.861Z,212.90
2018-12-08T13:15:44.805Z,190.33
2018-12-08T13:18:29.699Z,191.83
2018-12-08T13:21:10.705Z,184.20
2018-12-08T13:23:52.120Z,179.67
2018-12-08T13:26:35.836Z,175.50
2018-12-08T13:29:19.055Z,177.03
2018-12-08T13:32:05.099Z,170.73
2018-12-08T13:34:49.277Z,181.13
2018-12-08T13:37:31.657Z,170.67
2018-12-08T13:40:13.240Z,189.53
2018-12-08T13:42:56.013Z,194.07
2018-12-08T13:45:38.359Z,210.70
2018-12-08T13:48:20.818Z,188.47
2018-12-08T13:51:03.083Z,185.03
2018-12-08T13:53:46.816Z,209.57
2018-12-08T13:56:28.280Z,230.03
2018-12-08T13:59:13.230Z,206.80
2018-12-08T14:01:58.194Z,191.03
2018-12-08T14:04:42.503Z,210.83
2018-12-08T14:07:24.342Z,390.80
2018-12-08T14:10:09.803Z,336.07
2018-12-08T14:12:52.474Z,351.57
2018-12-08T14:15:36.474Z,297.77
2018-12-08T14:18:21.150Z,345.63
2018-12-08T14:21:03.700Z,285.90
2018-12-08T14:23:45.660Z,282.17
2018-12-08T14:26:27.358Z,251.13
2018-12-08T14:34:36.279Z,218.97
2018-12-08T14:42:45.143Z,200.93
2018-12-08T14:45:28.815Z,219.83
2018-12-08T14:48:09.619Z,406.30
2018-12-08T14:50:51.461Z,287.20
2018-12-08T14:53:32.543Z,246.47
2018-12-08T15:04:26.060Z,241.93
2018-12-08T15:12:34.300Z,242.77
2018-12-08T15:45:16.588Z,229.23
2018-12-08T15:47:56.667Z,223.80
2018-12-08T15:50:39.702Z,221.20
2018-12-08T16:26:05.645Z,246.10
2018-12-08T16:28:49.038Z,248.57
2018-12-08T16:34:13.264Z,240.67
2018-12-08T16:36:55.017Z,230.57
2018-12-08T16:45:04.357Z,226.57
2018-12-08T17:12:19.794Z,241.60
2018-12-08T17:28:39.375Z,272.97
2018-12-08T17:34:03.337Z,273.07
2018-12-08T17:36:44.194Z,263.53
2018-12-08T17:39:26.101Z,258.23
2018-12-08T17:42:06.745Z,263.00
2018-12-08T17:44:49.273Z,246.67
2018-12-08T17:58:25.581Z,240.97
2018-12-08T18:01:07.260Z,255.70
2018-12-08T18:03:47.750Z,238.00
2018-12-08T18:06:28.912Z,253.23
2018-12-08T18:09:09.496Z,239.83
2018-12-08T18:11:51.378Z,235.17
2018-12-08T18:17:16.903Z,225.00
2018-12-08T18:19:57.338Z,228.70
2018-12-08T18:25:22.270Z,227.33
2018-12-08T18:28:03.264Z,232.77
2018-12-08T18:30:44.434Z,237.50
2018-12-08T18:33:26.144Z,239.03
2018-12-08T18:36:08.115Z,236.53
2018-12-08T18:44:17.434Z,234.43
2018-12-08T18:46:58.375Z,232.83
2018-12-08T18:49:39.237Z,244.70
2018-12-08T18:52:20.259Z,236.60
2018-12-08T18:55:00.987Z,233.43
2018-12-08T18:57:42.720Z,234.90
2018-12-08T19:00:23.763Z,231.90
2018-12-08T19:03:05.352Z,221.60
2018-12-08T19:05:46.635Z,225.77
2018-12-08T19:08:27.869Z,229.23
2018-12-08T19:11:09.481Z,230.53
2018-12-08T19:13:50.188Z,220.93
2018-12-08T19:16:30.875Z,226.07
2018-12-08T19:19:11.639Z,228.50
2018-12-08T19:21:52.663Z,224.03
2018-12-08T19:24:33.625Z,220.60
2018-12-08T19:27:14.582Z,219.80
2018-12-08T19:29:55.848Z,213.23
2018-12-08T19:32:37.135Z,222.53
2018-12-08T19:35:17.701Z,217.00
2018-12-08T19:37:58.808Z,220.47
2018-12-08T19:40:40.103Z,217.40
2018-12-08T19:43:21.298Z,220.63
2018-12-08T19:46:02.347Z,224.70
2018-12-08T19:48:43.314Z,232.53
2018-12-08T19:51:24.823Z,234.23
2018-12-08T19:54:05.461Z,239.60
2018-12-08T19:56:46.757Z,251.07
2018-12-08T19:59:27.708Z,262.00
2018-12-08T20:02:08.995Z,268.73
2018-12-08T20:04:49.675Z,264.73
2018-12-08T20:07:30.343Z,248.90
2018-12-08T20:10:11.540Z,241.43
2018-12-08T20:12:52.398Z,248.23
2018-12-08T20:15:33.474Z,239.40
2018-12-08T20:18:14.589Z,244.63
2018-12-08T20:20:55.516Z,232.57
2018-12-08T20:23:37.027Z,224.10
2018-12-08T20:26:17.933Z,230.47
2018-12-08T20:29:01.465Z,231.03
2018-12-08T20:31:42.274Z,219.70
2018-12-08T20:34:23.720Z,222.30
2018-12-08T20:37:04.658Z,216.60
2018-12-08T20:39:45.544Z,222.53
2018-12-08T20:42:26.387Z,221.37
2018-12-08T20:45:07.357Z,223.03
2018-12-08T20:47:48.811Z,228.80
2018-12-08T20:50:29.799Z,236.23
2018-12-08T20:53:10.641Z,221.20
2018-12-08T20:55:52.064Z,234.13
2018-12-08T20:58:33.263Z,243.10
2018-12-08T21:01:13.945Z,248.33
2018-12-08T21:03:54.828Z,253.47
2018-12-08T21:06:35.875Z,242.90
2018-12-08T21:09:17.150Z,239.57
2018-12-08T21:11:58.111Z,242.23
2018-12-08T21:14:41.081Z,233.00
2018-12-08T21:17:22.258Z,241.07
2018-12-08T21:20:03.276Z,233.43
2018-12-08T21:22:43.948Z,224.23
2018-12-08T21:25:25.141Z,222.80
2018-12-08T21:28:06.092Z,221.03
2018-12-08T21:30:47.093Z,255.13
2018-12-08T21:33:28.364Z,264.37
2018-12-08T21:36:09.638Z,251.27
2018-12-08T21:38:50.395Z,266.87
2018-12-08T21:41:31.304Z,263.17
2018-12-08T21:44:12.035Z,258.37
2018-12-08T21:46:53.802Z,245.10
2018-12-08T21:49:34.892Z,244.53
2018-12-08T21:52:16.986Z,239.57
2018-12-08T21:54:57.948Z,255.07
2018-12-08T21:57:39.232Z,257.60
2018-12-08T22:00:20.241Z,260.83
2018-12-08T22:03:01.792Z,259.03
2018-12-08T22:05:43.072Z,264.17
2018-12-08T22:08:24.193Z,264.47
2018-12-08T22:11:05.987Z,251.13
2018-12-08T22:13:47.263Z,244.07
2018-12-08T22:16:28.180Z,234.63
2018-12-08T22:19:09.777Z,249.57
2018-12-08T22:21:51.102Z,250.50
2018-12-08T22:24:32.279Z,239.50
2018-12-08T22:27:13.615Z,234.67
2018-12-08T22:29:55.225Z,226.23
2018-12-08T22:32:36.512Z,221.87
2018-12-08T22:35:17.181Z,234.20
2018-12-08T22:37:57.776Z,225.57
2018-12-08T22:40:39.372Z,220.93
2018-12-08T22:43:20.625Z,222.57
2018-12-08T22:46:01.506Z,226.30
2018-12-08T22:48:42.987Z,237.20
2018-12-08T22:51:24.186Z,233.13
2018-12-08T22:54:05.330Z,230.73
2018-12-08T22:56:46.202Z,229.27
2018-12-08T22:59:26.838Z,228.40
2018-12-08T23:02:08.265Z,221.97
2018-12-08T23:04:49.629Z,221.97
2018-12-08T23:07:30.582Z,226.70
2018-12-08T23:10:11.893Z,220.83
2018-12-08T23:12:53.472Z,217.13
2018-12-08T23:15:34.462Z,221.53
2018-12-08T23:18:15.867Z,218.60
2018-12-08T23:20:56.632Z,221.10
2018-12-08T23:23:37.617Z,247.33
2018-12-08T23:26:18.756Z,255.80
2018-12-08T23:28:59.858Z,239.50
2018-12-08T23:31:40.810Z,237.90
2018-12-08T23:34:21.586Z,243.47
2018-12-08T23:37:02.746Z,262.47
2018-12-08T23:46:39.407Z,275.40
2018-12-08T23:49:20.377Z,272.20
2018-12-08T23:52:01.604Z,277.83
2018-12-08T23:54:42.094Z,295.80
2018-12-08T23:57:22.877Z,272.87
